Time;durP1;ratioP1;P1;durP2;ratioP2;P2;SDS_P1;SDS_P2;PMS_P1;PMS_P2;Temp;Humidity;BMP_temperature;BMP_pressure;BME280_temperature;BME280_humidity;BME280_pressure;Samples;Min_cycle;Max_cycle;Signal;HPM_P1;HPM_P2
2021/06/15 00:00:52;;;;;;;11.02;7.18;;;14.50;99.90;;;;;;5117716;28;20246;-58
2021/06/15 00:03:22;;;;;;;9.95;6.95;;;14.30;99.90;;;;;;5116236;28;20254;-58
2021/06/15 00:05:49;;;;;;;10.57;7.90;;;14.40;99.90;;;;;;5114573;28;20201;-57
2021/06/15 00:08:16;;;;;;;11.40;7.65;;;14.40;99.90;;;;;;5116840;28;20444;-58
2021/06/15 00:10:44;;;;;;;11.65;7.30;;;14.40;99.90;;;;;;5114627;28;20205;-59
2021/06/15 00:13:12;;;;;;;6.50;5.85;;;14.20;99.90;;;;;;5113002;28;20413;-57
2021/06/15 00:15:40;;;;;;;10.35;6.78;;;14.10;99.90;;;;;;5115675;28;20229;-58
2021/06/15 00:18:08;;;;;;;11.57;6.80;;;14.20;99.90;;;;;;5113860;28;20448;-57
2021/06/15 00:20:35;;;;;;;9.80;6.07;;;14.30;99.90;;;;;;5116365;28;20228;-57
2021/06/15 00:23:03;;;;;;;8.25;6.60;;;14.20;99.90;;;;;;5115920;28;20208;-57
2021/06/15 00:25:30;;;;;;;9.88;6.53;;;14.30;99.90;;;;;;5114431;28;20247;-56
2021/06/15 00:27:57;;;;;;;8.93;6.45;;;14.20;99.90;;;;;;5116068;28;20205;-58
2021/06/15 00:30:24;;;;;;;14.52;6.35;;;14.10;99.90;;;;;;5115999;28;20209;-58
2021/06/15 00:32:52;;;;;;;10.80;7.03;;;14.20;99.90;;;;;;5114141;28;20535;-57
2021/06/15 00:35:19;;;;;;;9.23;6.50;;;14.30;99.90;;;;;;5115667;28;20205;-58
2021/06/15 00:37:47;;;;;;;9.95;6.03;;;14.30;99.90;;;;;;5116628;28;20201;-56
2021/06/15 00:40:15;;;;;;;7.65;6.57;;;14.30;99.90;;;;;;5111157;28;20197;-57
2021/06/15 00:42:42;;;;;;;23.67;8.15;;;14.10;99.90;;;;;;5117388;28;20272;-57
2021/06/15 00:45:12;;;;;;;8.15;7.00;;;14.20;99.90;;;;;;5114900;28;20231;-56
2021/06/15 00:47:44;;;;;;;13.65;7.38;;;14.10;99.90;;;;;;5114454;28;20312;-57
2021/06/15 00:50:11;;;;;;;12.55;7.63;;;14.10;99.90;;;;;;5113847;28;20204;-59
2021/06/15 00:52:38;;;;;;;8.55;7.00;;;14.10;99.90;;;;;;5116176;28;20235;-57
2021/06/15 00:55:06;;;;;;;12.95;7.97;;;14.10;99.90;;;;;;5115917;28;20247;-59
2021/06/15 00:57:33;;;;;;;10.55;8.40;;;14.00;99.90;;;;;;5113966;28;20544;-58
2021/06/15 01:00:00;;;;;;;10.70;7.30;;;14.00;99.90;;;;;;5114354;28;20234;-56
2021/06/15 01:02:29;;;;;;;8.55;6.82;;;14.00;99.90;;;;;;5114797;28;20205;-58
2021/06/15 01:04:59;;;;;;;11.93;8.30;;;14.00;99.90;;;;;;5117169;28;20216;-58
2021/06/15 01:08:17;;;;;;;7.85;6.85;;;13.90;99.90;;;;;;5120090;28;20348;-59
2021/06/15 01:11:03;;;;;;;9.20;6.53;;;13.70;99.90;;;;;;5095926;28;20205;-58
2021/06/15 01:14:05;;;;;;;10.95;6.15;;;14.70;99.90;;;;;;5115517;28;20194;-58
2021/06/15 01:16:37;;;;;;;12.02;8.05;;;13.70;99.90;;;;;;5077262;28;20226;-57
2021/06/15 01:19:29;;;;;;;10.35;7.25;;;13.60;99.90;;;;;;5111864;28;20228;-58
2021/06/15 01:22:18;;;;;;;9.13;7.97;;;13.50;99.90;;;;;;5117579;28;20201;-58
2021/06/15 01:25:05;;;;;;;16.55;7.97;;;13.60;99.90;;;;;;5120427;28;20439;-57
2021/06/15 01:28:01;;;;;;;10.25;8.00;;;13.60;99.90;;;;;;5117436;28;20212;-56
2021/06/15 01:30:49;;;;;;;13.63;8.65;;;13.50;99.90;;;;;;5117967;28;20202;-57
2021/06/15 01:33:18;;;;;;;8.07;7.13;;;13.60;99.90;;;;;;5118563;28;20205;-58
2021/06/15 01:35:46;;;;;;;11.45;8.15;;;13.60;99.90;;;;;;5115969;28;20213;-56
2021/06/15 01:38:17;;;;;;;13.52;8.27;;;14.00;99.90;;;;;;5118083;28;20250;-56
2021/06/15 01:40:53;;;;;;;9.48;7.75;;;13.50;99.90;;;;;;5118616;28;20265;-57
2021/06/15 01:43:33;;;;;;;12.82;8.32;;;13.50;99.90;;;;;;5118279;28;20212;-57
2021/06/15 01:46:03;;;;;;;9.30;7.53;;;13.40;99.90;;;;;;5118775;28;20491;-57
2021/06/15 01:48:41;;;;;;;11.10;9.20;;;13.40;99.90;;;;;;5119243;28;20552;-56
2021/06/15 01:51:10;;;;;;;12.48;8.57;;;13.20;99.90;;;;;;5119584;28;20204;-59
2021/06/15 01:53:44;;;;;;;12.18;9.23;;;13.20;99.90;;;;;;5120039;28;20503;-57
2021/06/15 01:56:15;;;;;;;14.43;7.80;;;13.10;99.90;;;;;;5118223;27;20278;-56
2021/06/15 01:58:45;;;;;;;11.70;8.45;;;13.00;99.90;;;;;;5118648;28;20602;-55
2021/06/15 02:01:12;;;;;;;8.35;7.28;;;13.00;99.90;;;;;;5118194;28;20239;-58
2021/06/15 02:03:41;;;;;;;10.73;7.18;;;13.10;99.90;;;;;;5119064;28;20406;-57
2021/06/15 02:06:09;;;;;;;11.65;8.77;;;13.20;99.90;;;;;;5116708;28;20208;-57
2021/06/15 02:08:39;;;;;;;9.30;7.28;;;13.20;99.90;;;;;;5116739;28;20212;-56
2021/06/15 02:11:07;;;;;;;17.05;10.30;;;13.30;99.90;;;;;;5119097;28;20511;-56
2021/06/15 02:13:39;;;;;;;12.70;9.27;;;13.20;99.90;;;;;;5119341;28;20666;-56
2021/06/15 02:16:07;;;;;;;14.95;9.27;;;13.10;99.90;;;;;;5118871;28;20454;-58
2021/06/15 02:18:35;;;;;;;10.18;7.68;;;13.00;99.90;;;;;;5118641;28;20243;-58
2021/06/15 02:21:07;;;;;;;10.98;8.23;;;12.90;99.90;;;;;;5118397;28;20293;-58
2021/06/15 02:23:36;;;;;;;13.13;9.65;;;12.90;99.90;;;;;;5118643;28;20246;-57
2021/06/15 02:26:13;;;;;;;14.55;8.65;;;13.00;99.90;;;;;;5119284;28;20499;-57
2021/06/15 02:28:40;;;;;;;11.30;7.80;;;12.90;99.90;;;;;;5118592;28;20455;-58
2021/06/15 02:31:14;;;;;;;9.85;7.40;;;13.00;99.90;;;;;;5119378;28;20541;-58
2021/06/15 02:33:49;;;;;;;9.30;7.25;;;12.90;99.90;;;;;;5118858;28;20265;-58
2021/06/15 02:36:28;;;;;;;14.02;8.05;;;12.90;99.90;;;;;;5119138;27;20211;-57
2021/06/15 02:39:04;;;;;;;12.45;9.05;;;12.80;99.90;;;;;;5115373;28;20221;-56
2021/06/15 02:41:35;;;;;;;8.88;7.97;;;12.80;99.90;;;;;;5116548;27;20242;-60
2021/06/15 02:44:04;;;;;;;13.05;9.10;;;12.70;99.90;;;;;;5116798;27;20266;-58
2021/06/15 02:46:35;;;;;;;13.75;10.18;;;12.70;99.90;;;;;;5114272;28;20257;-58
2021/06/15 02:49:08;;;;;;;11.38;7.43;;;12.70;99.90;;;;;;5117182;28;20283;-58
2021/06/15 02:51:40;;;;;;;14.40;8.60;;;12.70;99.90;;;;;;5116406;28;20257;-57
2021/06/15 02:54:21;;;;;;;11.13;7.70;;;12.80;99.90;;;;;;5118195;28;20561;-56
2021/06/15 02:56:52;;;;;;;13.80;9.70;;;12.80;99.90;;;;;;5116156;28;20208;-56
2021/06/15 02:59:20;;;;;;;16.52;11.80;;;12.90;99.90;;;;;;5117683;27;20231;-56
2021/06/15 03:01:48;;;;;;;11.85;9.60;;;12.90;99.90;;;;;;5116916;28;20408;-57
2021/06/15 03:04:17;;;;;;;12.20;8.30;;;13.00;99.90;;;;;;5118642;28;20538;-56
2021/06/15 03:06:44;;;;;;;11.65;8.77;;;13.00;99.90;;;;;;5118542;28;20205;-56
2021/06/15 03:09:12;;;;;;;14.85;10.32;;;13.10;99.90;;;;;;5115304;28;20265;-57
2021/06/15 03:11:47;;;;;;;13.80;9.73;;;13.20;99.90;;;;;;5115634;28;20216;-56
2021/06/15 03:14:22;;;;;;;13.18;8.52;;;13.40;99.90;;;;;;5116547;28;20487;-57
2021/06/15 03:16:53;;;;;;;12.48;9.25;;;13.40;99.90;;;;;;5113604;28;20228;-57
2021/06/15 03:19:23;;;;;;;9.40;8.00;;;13.50;99.90;;;;;;5117221;28;20233;-58
2021/06/15 03:21:59;;;;;;;11.20;9.00;;;13.50;99.90;;;;;;5111730;28;20210;-57
2021/06/15 03:24:30;;;;;;;9.55;8.32;;;13.70;99.90;;;;;;5118376;28;20208;-57
2021/06/15 03:27:09;;;;;;;11.73;8.55;;;14.00;99.90;;;;;;5115338;28;20206;-57
2021/06/15 03:29:39;;;;;;;16.25;8.73;;;14.20;99.90;;;;;;5117863;28;20209;-57
2021/06/15 03:32:09;;;;;;;12.75;8.50;;;14.40;99.90;;;;;;5117145;27;20206;-58
2021/06/15 03:34:46;;;;;;;11.82;8.20;;;16.20;99.90;;;;;;5118332;28;20201;-56
2021/06/15 03:37:20;;;;;;;9.63;7.30;;;15.10;99.90;;;;;;5114271;28;20561;-58
2021/06/15 03:39:49;;;;;;;13.15;7.90;;;15.90;99.90;;;;;;5118025;28;20225;-58
2021/06/15 03:42:22;;;;;;;13.35;9.90;;;16.60;99.90;;;;;;5115651;28;20239;-56
2021/06/15 03:45:05;;;;;;;9.48;8.35;;;17.70;99.90;;;;;;5116086;28;20363;-57
2021/06/15 03:47:34;;;;;;;11.00;8.57;;;18.80;99.70;;;;;;5114482;28;20199;-56
2021/06/15 03:50:02;;;;;;;9.23;6.90;;;19.60;98.00;;;;;;5118398;28;20444;-56
2021/06/15 03:52:34;;;;;;;12.80;7.90;;;20.20;96.30;;;;;;5117401;28;20415;-57
2021/06/15 03:55:04;;;;;;;9.00;8.10;;;19.70;96.10;;;;;;5115353;28;20436;-57
2021/06/15 03:57:32;;;;;;;10.70;9.80;;;19.00;98.00;;;;;;5111758;28;20440;-56
2021/06/15 04:00:03;;;;;;;11.20;8.60;;;18.60;98.00;;;;;;5114380;28;20523;-57
2021/06/15 04:02:33;;;;;;;7.93;6.80;;;18.30;98.30;;;;;;5116343;28;20704;-56
2021/06/15 04:05:02;;;;;;;13.63;8.47;;;18.10;98.90;;;;;;5115049;28;20521;-57
2021/06/15 04:07:32;;;;;;;9.80;8.20;;;18.10;99.10;;;;;;5116745;28;20498;-58
2021/06/15 04:10:02;;;;;;;10.93;7.87;;;17.90;99.70;;;;;;5116949;28;20710;-57
2021/06/15 04:12:30;;;;;;;9.20;8.30;;;17.70;99.70;;;;;;5114320;27;20495;-58
2021/06/15 04:15:00;;;;;;;8.43;7.60;;;17.60;99.60;;;;;;5114425;28;20410;-59
2021/06/15 04:17:35;;;;;;;11.20;7.90;;;17.30;99.90;;;;;;5115789;28;20649;-55
2021/06/15 04:20:04;;;;;;;9.77;7.50;;;16.90;99.90;;;;;;5115283;28;20462;-56
2021/06/15 04:22:36;;;;;;;10.27;8.30;;;16.20;99.90;;;;;;5114429;28;20419;-57
2021/06/15 04:25:05;;;;;;;12.50;8.70;;;17.00;99.90;;;;;;5115531;28;21043;-56
2021/06/15 04:27:34;;;;;;;14.73;7.97;;;17.00;99.90;;;;;;5113257;28;20415;-56
2021/06/15 04:30:03;;;;;;;10.23;9.23;;;17.10;99.90;;;;;;5115367;28;20983;-56
2021/06/15 04:32:57;;;;;;;8.70;7.43;;;17.00;99.90;;;;;;5116051;28;20757;-56
2021/06/15 04:35:31;;;;;;;12.70;8.40;;;17.00;99.90;;;;;;5111274;28;20427;-57
2021/06/15 04:38:03;;;;;;;11.00;8.17;;;17.00;99.90;;;;;;5116544;28;20418;-57
2021/06/15 04:40:36;;;;;;;8.93;8.03;;;17.00;99.90;;;;;;5113730;28;20479;-58
2021/06/15 04:43:19;;;;;;;11.50;8.87;;;18.00;99.90;;;;;;5105069;28;20416;-57
2021/06/15 04:45:46;;;;;;;11.90;8.50;;;17.00;99.90;;;;;;5112086;28;20411;-56
2021/06/15 04:48:30;;;;;;;14.00;9.53;;;17.20;99.90;;;;;;5105747;28;20461;-58
2021/06/15 04:51:01;;;;;;;16.03;11.40;;;18.20;99.90;;;;;;5108138;28;20480;-56
2021/06/15 04:53:38;;;;;;;9.33;8.27;;;17.50;99.90;;;;;;5107449;28;20441;-56
2021/06/15 04:56:08;;;;;;;12.63;7.87;;;17.70;99.90;;;;;;5111654;28;20899;-56
2021/06/15 04:58:36;;;;;;;8.97;8.07;;;17.80;99.90;;;;;;5098287;28;20491;-58
2021/06/15 05:01:04;;;;;;;11.67;8.23;;;18.00;99.90;;;;;;5112561;28;20784;-57
2021/06/15 05:03:32;;;;;;;10.83;9.20;;;18.20;99.60;;;;;;5114783;28;20408;-58
2021/06/15 05:06:07;;;;;;;13.00;9.77;;;18.50;98.50;;;;;;5115452;28;20473;-56
2021/06/15 05:08:40;;;;;;;10.83;8.27;;;18.60;99.10;;;;;;5110104;28;20480;-56
2021/06/15 05:11:08;;;;;;;10.53;9.00;;;18.70;98.40;;;;;;5109268;28;20468;-58
2021/06/15 05:13:38;;;;;;;19.70;14.97;;;18.80;98.30;;;;;;5099506;28;20420;-58
2021/06/15 05:16:07;;;;;;;13.80;9.97;;;19.00;98.50;;;;;;5097890;28;20435;-58
2021/06/15 05:18:37;;;;;;;12.67;10.10;;;19.10;98.00;;;;;;5115279;28;20482;-58
2021/06/15 05:21:12;;;;;;;11.93;10.60;;;19.10;98.30;;;;;;5110577;28;20481;-57
2021/06/15 05:24:03;;;;;;;9.37;8.27;;;19.30;98.40;;;;;;5107848;28;20499;-57
2021/06/15 05:26:33;;;;;;;8.90;7.97;;;19.60;97.70;;;;;;5114618;28;20416;-59
2021/06/15 05:29:00;;;;;;;12.00;10.70;;;19.90;96.40;;;;;;5115283;28;20414;-58
2021/06/15 05:31:27;;;;;;;15.30;10.43;;;19.90;96.60;;;;;;5107838;28;20825;-58
2021/06/15 05:33:54;;;;;;;10.70;9.60;;;20.10;96.60;;;;;;5103013;28;20416;-57
2021/06/15 05:36:21;;;;;;;9.70;8.73;;;20.20;96.70;;;;;;5109682;28;20447;-57
2021/06/15 05:38:48;;;;;;;8.70;7.83;;;20.40;95.70;;;;;;5101921;28;20437;-59
2021/06/15 05:41:18;;;;;;;8.87;8.07;;;20.40;95.20;;;;;;5112339;28;20658;-58
2021/06/15 05:43:50;;;;;;;7.80;7.10;;;20.60;95.60;;;;;;5100944;28;20423;-60
2021/06/15 05:46:17;;;;;;;9.93;9.03;;;20.60;95.10;;;;;;5115750;28;20442;-61
2021/06/15 05:48:46;;;;;;;8.50;7.63;;;21.10;94.60;;;;;;5104358;28;20425;-58
2021/06/15 05:51:13;;;;;;;8.03;6.90;;;21.40;93.80;;;;;;5112637;28;20469;-58
2021/06/15 05:53:40;;;;;;;9.07;8.27;;;21.50;93.50;;;;;;5116571;28;20544;-58
2021/06/15 05:56:07;;;;;;;8.70;7.90;;;21.70;93.30;;;;;;5118516;28;20417;-59
2021/06/15 05:58:35;;;;;;;11.03;8.90;;;21.90;92.80;;;;;;5120019;28;20425;-58
2021/06/15 06:01:02;;;;;;;8.60;7.13;;;22.10;92.50;;;;;;5118551;28;20470;-57
2021/06/15 06:03:34;;;;;;;9.17;8.27;;;22.20;92.90;;;;;;5118112;28;20444;-58
2021/06/15 06:08:48;;;;;;;12.33;9.30;;;22.30;91.80;;;;;;5119734;28;20414;-56
2021/06/15 06:11:15;;;;;;;8.90;8.20;;;22.50;91.60;;;;;;5116055;27;20422;-60
2021/06/15 06:13:42;;;;;;;8.70;7.90;;;22.80;91.20;;;;;;5119788;28;20493;-56
2021/06/15 06:16:12;;;;;;;9.60;8.70;;;23.10;91.10;;;;;;5118409;28;20486;-57
2021/06/15 06:18:40;;;;;;;9.90;9.10;;;23.60;90.30;;;;;;5119179;28;20734;-57
2021/06/15 06:21:10;;;;;;;10.43;9.43;;;24.10;88.00;;;;;;5116814;28;20493;-56
2021/06/15 06:23:38;;;;;;;9.90;8.97;;;24.60;86.00;;;;;;5116490;28;20404;-57
2021/06/15 06:26:05;;;;;;;10.13;9.40;;;25.50;81.20;;;;;;5111310;28;20559;-56
2021/06/15 06:28:33;;;;;;;9.50;8.90;;;26.60;77.60;;;;;;5118274;27;20438;-56
2021/06/15 06:31:00;;;;;;;11.20;10.00;;;27.10;74.20;;;;;;5119882;28;20427;-57
2021/06/15 06:33:27;;;;;;;10.60;9.80;;;27.30;73.80;;;;;;5105660;28;20420;-57
2021/06/15 06:35:55;;;;;;;9.93;9.03;;;27.00;72.00;;;;;;5112753;27;20435;-58
2021/06/15 06:38:22;;;;;;;9.80;8.97;;;26.60;72.40;;;;;;5112675;28;20496;-57
2021/06/15 06:40:49;;;;;;;10.90;9.90;;;26.60;72.50;;;;;;5099605;28;20688;-58
2021/06/15 06:43:16;;;;;;;10.77;9.83;;;27.30;71.70;;;;;;5111313;28;20443;-58
2021/06/15 06:45:43;;;;;;;11.43;10.50;;;28.00;67.90;;;;;;5104660;28;20439;-56
2021/06/15 06:48:11;;;;;;;10.87;10.13;;;28.10;66.40;;;;;;5108697;28;20443;-58
2021/06/15 06:50:38;;;;;;;10.20;9.40;;;28.50;63.80;;;;;;5111501;28;20772;-56
2021/06/15 06:53:05;;;;;;;10.73;9.63;;;30.00;59.30;;;;;;5118831;28;20705;-58
2021/06/15 06:55:33;;;;;;;10.27;9.43;;;32.00;54.70;;;;;;5118602;28;20445;-58
2021/06/15 06:58:00;;;;;;;13.30;12.20;;;32.50;50.90;;;;;;5113924;28;20439;-57
2021/06/15 07:00:28;;;;;;;11.70;10.90;;;35.20;47.40;;;;;;5103854;28;20485;-57
2021/06/15 07:02:56;;;;;;;10.90;10.10;;;35.90;43.50;;;;;;5110641;28;20453;-59
2021/06/15 07:05:23;;;;;;;12.80;11.80;;;35.50;43.50;;;;;;5107526;28;20506;-56
2021/06/15 07:07:51;;;;;;;12.17;11.47;;;36.70;40.60;;;;;;5117202;28;20530;-58
2021/06/15 07:10:22;;;;;;;12.40;11.70;;;36.90;41.20;;;;;;5116026;28;20441;-56
2021/06/15 07:12:50;;;;;;;12.07;11.33;;;37.40;39.90;;;;;;5117072;28;20453;-56
2021/06/15 07:15:17;;;;;;;12.33;11.43;;;36.50;40.60;;;;;;5111870;28;20531;-59
2021/06/15 07:17:44;;;;;;;13.70;12.80;;;36.20;41.10;;;;;;5098383;28;20454;-56
2021/06/15 07:20:12;;;;;;;12.23;11.53;;;36.70;41.40;;;;;;5100800;28;20696;-57
2021/06/15 07:22:39;;;;;;;13.67;12.57;;;38.60;38.20;;;;;;5109134;28;20439;-57
2021/06/15 07:25:07;;;;;;;12.47;11.43;;;39.40;36.40;;;;;;5110245;28;20435;-56
2021/06/15 07:27:34;;;;;;;11.13;10.53;;;38.30;36.40;;;;;;5105984;28;20491;-56
2021/06/15 07:30:03;;;;;;;13.17;12.43;;;38.40;37.00;;;;;;5116007;28;20442;-56
2021/06/15 07:32:30;;;;;;;12.07;11.27;;;38.80;36.80;;;;;;5105866;28;20696;-58
2021/06/15 07:34:58;;;;;;;11.50;10.63;;;39.20;35.10;;;;;;5117377;28;20431;-57
2021/06/15 07:37:25;;;;;;;11.80;10.87;;;40.30;33.90;;;;;;5115905;28;20442;-57
2021/06/15 07:39:52;;;;;;;10.60;10.00;;;39.80;34.00;;;;;;5105494;28;20447;-58
2021/06/15 07:42:19;;;;;;;12.83;12.03;;;40.10;33.20;;;;;;5115198;28;20764;-59
2021/06/15 07:44:46;;;;;;;12.77;12.07;;;41.80;31.40;;;;;;5107385;28;20492;-57
2021/06/15 07:47:13;;;;;;;12.50;11.70;;;41.40;31.50;;;;;;5112811;27;20434;-58
2021/06/15 07:49:41;;;;;;;13.60;12.70;;;41.40;32.00;;;;;;5098569;28;20462;-59
2021/06/15 07:52:08;;;;;;;13.70;12.67;;;41.20;32.00;;;;;;5109362;28;20506;-58
2021/06/15 07:54:35;;;;;;;14.37;13.30;;;40.70;32.00;;;;;;5113166;28;20447;-57
2021/06/15 07:57:05;;;;;;;13.90;12.90;;;41.40;30.50;;;;;;5097966;28;20821;-56
2021/06/15 07:59:32;;;;;;;13.30;12.50;;;41.90;31.10;;;;;;5105481;28;20753;-57
2021/06/15 08:01:59;;;;;;;14.23;13.30;;;42.30;29.90;;;;;;5106261;28;20483;-58
2021/06/15 08:04:28;;;;;;;11.80;11.00;;;42.80;29.90;;;;;;5116416;28;20446;-57
2021/06/15 08:06:55;;;;;;;11.93;11.30;;;41.50;30.50;;;;;;5097133;28;20982;-57
2021/06/15 08:09:22;;;;;;;12.80;12.00;;;41.40;30.80;;;;;;5111609;28;20480;-58
2021/06/15 08:11:50;;;;;;;12.10;11.40;;;42.10;30.00;;;;;;5114268;28;20840;-57
2021/06/15 08:14:17;;;;;;;13.23;12.33;;;42.00;30.50;;;;;;5106569;28;20535;-57
2021/06/15 08:16:44;;;;;;;12.37;11.73;;;43.10;29.90;;;;;;5096776;28;20528;-58
2021/06/15 08:19:11;;;;;;;14.40;13.40;;;42.00;31.00;;;;;;5107315;28;20629;-58
2021/06/15 08:21:38;;;;;;;14.57;13.17;;;40.90;31.30;;;;;;5112245;28;20466;-59
2021/06/15 08:24:08;;;;;;;13.50;12.37;;;39.20;32.80;;;;;;5116631;27;20467;-57
2021/06/15 08:26:35;;;;;;;13.43;12.63;;;38.70;33.90;;;;;;5116074;28;20841;-58
2021/06/15 08:29:02;;;;;;;12.40;11.20;;;39.80;32.80;;;;;;5104445;28;20737;-58
2021/06/15 08:31:29;;;;;;;12.57;11.87;;;39.00;32.70;;;;;;5116822;28;20486;-57
2021/06/15 08:33:57;;;;;;;12.37;11.47;;;38.80;33.00;;;;;;5112092;28;20434;-57
2021/06/15 08:36:25;;;;;;;12.77;11.87;;;39.80;32.10;;;;;;5108992;28;20492;-60
2021/06/15 08:38:52;;;;;;;13.27;12.30;;;39.80;31.60;;;;;;5117024;28;20487;-58
2021/06/15 08:41:20;;;;;;;11.13;10.43;;;40.00;31.60;;;;;;5117420;28;20445;-58
2021/06/15 08:43:48;;;;;;;12.53;11.53;;;40.60;30.90;;;;;;5115219;28;20440;-59
2021/06/15 08:46:18;;;;;;;12.13;11.27;;;40.80;30.20;;;;;;5117214;28;20620;-60
2021/06/15 08:48:45;;;;;;;12.83;12.03;;;40.20;31.40;;;;;;5113771;28;20512;-58
2021/06/15 08:51:12;;;;;;;13.03;12.17;;;38.60;32.70;;;;;;5114432;28;20482;-58
2021/06/15 08:53:40;;;;;;;11.70;10.93;;;38.20;32.40;;;;;;5114965;28;20748;-58
2021/06/15 08:56:33;;;;;;;11.90;10.93;;;37.20;33.80;;;;;;5114762;28;20446;-58
2021/06/15 08:59:15;;;;;;;12.50;11.80;;;37.00;34.20;;;;;;5110854;28;20676;-58
2021/06/15 09:02:06;;;;;;;11.43;10.83;;;38.00;33.60;;;;;;5100446;28;20439;-57
2021/06/15 09:04:34;;;;;;;11.97;11.17;;;39.80;31.10;;;;;;5103957;28;20442;-57
2021/06/15 09:07:02;;;;;;;10.60;10.03;;;41.90;29.10;;;;;;5100867;28;20450;-58
2021/06/15 09:09:50;;;;;;;10.67;9.90;;;42.10;29.20;;;;;;5113950;28;20491;-58
2021/06/15 09:12:21;;;;;;;10.90;10.30;;;40.10;30.00;;;;;;5100705;28;20496;-58
2021/06/15 09:14:51;;;;;;;10.07;9.57;;;41.50;30.30;;;;;;5112160;28;20500;-55
2021/06/15 09:17:28;;;;;;;10.47;9.93;;;40.00;30.00;;;;;;5117406;28;20438;-58
2021/06/15 09:20:10;;;;;;;9.77;9.37;;;40.40;29.90;;;;;;5104628;28;20507;-57
2021/06/15 09:23:05;;;;;;;11.27;10.57;;;39.00;30.20;;;;;;5106954;28;20441;-57
2021/06/15 09:25:40;;;;;;;10.87;10.13;;;39.30;30.20;;;;;;5114783;28;20509;-58
2021/06/15 09:28:22;;;;;;;11.50;11.00;;;39.80;29.90;;;;;;5110360;27;20491;-58
2021/06/15 09:31:11;;;;;;;10.17;9.70;;;40.30;30.00;;;;;;5105985;28;20482;-58
2021/06/15 09:33:42;;;;;;;12.67;11.83;;;40.40;29.90;;;;;;5115946;28;20485;-58
2021/06/15 09:36:17;;;;;;;10.17;9.57;;;39.50;30.20;;;;;;5105430;28;20443;-59
2021/06/15 09:39:00;;;;;;;10.87;10.20;;;37.80;33.10;;;;;;5110533;28;20751;-58
2021/06/15 09:41:39;;;;;;;10.57;9.93;;;34.20;37.50;;;;;;5120114;28;20456;-58
2021/06/15 09:44:25;;;;;;;10.33;9.57;;;33.00;39.90;;;;;;5106156;28;20773;-58
2021/06/15 09:46:58;;;;;;;11.50;10.80;;;32.40;41.50;;;;;;5113525;28;20805;-59
2021/06/15 09:49:39;;;;;;;10.23;9.63;;;31.30;42.00;;;;;;5117627;28;20452;-55
2021/06/15 09:52:27;;;;;;;10.80;10.00;;;30.80;43.50;;;;;;5121040;28;20534;-59
2021/06/15 09:55:04;;;;;;;11.30;10.40;;;30.60;43.90;;;;;;5106249;28;20449;-58
2021/06/15 09:57:39;;;;;;;10.03;9.40;;;30.60;43.70;;;;;;5106097;28;20753;-55
2021/06/15 10:00:22;;;;;;;9.23;8.63;;;30.50;43.80;;;;;;5106191;28;20442;-57
2021/06/15 10:02:55;;;;;;;11.73;10.93;;;30.50;45.10;;;;;;5099328;28;20434;-58
2021/06/15 10:05:37;;;;;;;11.43;10.60;;;30.30;44.60;;;;;;5099928;28;20446;-57
2021/06/15 10:08:13;;;;;;;11.57;10.77;;;30.20;45.00;;;;;;5116024;28;20589;-58
2021/06/15 10:10:45;;;;;;;10.93;10.20;;;29.70;45.80;;;;;;5119639;28;20512;-57
2021/06/15 10:13:12;;;;;;;10.40;9.50;;;29.50;47.20;;;;;;5104423;28;20442;-59
2021/06/15 10:15:43;;;;;;;11.33;10.40;;;29.50;46.80;;;;;;5112291;28;20722;-59
2021/06/15 10:18:11;;;;;;;11.20;10.30;;;29.30;46.70;;;;;;5101059;28;20450;-60
2021/06/15 10:20:38;;;;;;;11.23;10.43;;;29.20;47.40;;;;;;5110889;28;20546;-58
2021/06/15 10:23:06;;;;;;;10.93;9.80;;;28.70;45.80;;;;;;5101839;28;20451;-58
2021/06/15 10:25:34;;;;;;;10.90;10.20;;;29.30;47.70;;;;;;5113734;28;20800;-57
2021/06/15 10:28:12;;;;;;;10.73;9.90;;;29.30;48.50;;;;;;5113854;28;20446;-59
2021/06/15 10:30:43;;;;;;;10.37;9.53;;;29.30;47.70;;;;;;5107751;28;20488;-58
2021/06/15 10:33:25;;;;;;;11.87;10.87;;;29.10;47.20;;;;;;5120408;28;20764;-58
2021/06/15 10:35:55;;;;;;;9.60;9.10;;;29.20;48.00;;;;;;5118334;28;20444;-58
2021/06/15 10:38:25;;;;;;;8.93;8.20;;;29.10;47.50;;;;;;5110488;27;20484;-59
2021/06/15 10:40:55;;;;;;;10.83;9.93;;;28.80;47.60;;;;;;5104419;28;20432;-58
2021/06/15 10:43:44;;;;;;;9.00;8.40;;;28.40;48.20;;;;;;5102414;28;20498;-58
2021/06/15 10:46:14;;;;;;;10.00;9.20;;;28.60;49.10;;;;;;5098953;28;20750;-58
2021/06/15 10:48:47;;;;;;;9.90;9.27;;;29.90;48.20;;;;;;5102001;27;20439;-58
2021/06/15 10:51:34;;;;;;;12.70;11.67;;;29.10;48.70;;;;;;5116504;28;20481;-59
2021/06/15 10:54:25;;;;;;;11.27;10.43;;;29.20;48.70;;;;;;5118890;28;20430;-58
2021/06/15 10:57:16;;;;;;;12.23;10.20;;;29.60;48.90;;;;;;5119987;28;20442;-58
2021/06/15 11:00:05;;;;;;;11.03;9.93;;;29.40;47.90;;;;;;5112866;28;20434;-58
2021/06/15 11:02:34;;;;;;;11.23;10.27;;;29.40;48.30;;;;;;5106990;27;20662;-58
2021/06/15 11:05:38;;;;;;;9.53;8.93;;;29.20;49.80;;;;;;5118622;28;20530;-58
2021/06/15 11:08:18;;;;;;;9.90;9.10;;;29.40;48.50;;;;;;5099198;28;20454;-57
2021/06/15 11:11:04;;;;;;;11.20;10.17;;;29.50;48.00;;;;;;5109212;28;20442;-57
2021/06/15 11:13:51;;;;;;;10.97;9.73;;;29.60;49.50;;;;;;5100338;28;20758;-57
2021/06/15 11:16:19;;;;;;;9.67;8.97;;;29.60;48.30;;;;;;5114699;28;20469;-58
2021/06/15 11:18:46;;;;;;;11.10;10.03;;;29.70;48.70;;;;;;5114770;28;20748;-56
2021/06/15 11:21:24;;;;;;;10.00;9.30;;;29.60;47.80;;;;;;5106972;28;20714;-58
2021/06/15 11:24:20;;;;;;;10.60;9.73;;;29.50;48.50;;;;;;5104132;28;20438;-59
2021/06/15 11:26:52;;;;;;;11.00;10.00;;;29.60;48.60;;;;;;5105337;28;20870;-58
2021/06/15 11:29:35;;;;;;;10.57;9.60;;;29.50;48.70;;;;;;5119605;28;20442;-58
2021/06/15 11:32:18;;;;;;;9.70;9.10;;;29.20;49.20;;;;;;5118817;28;20486;-58
2021/06/15 11:35:03;;;;;;;10.50;9.80;;;28.80;50.20;;;;;;5118237;28;20803;-58
2021/06/15 11:37:36;;;;;;;10.70;9.90;;;28.20;50.40;;;;;;5104788;28;20487;-58
2021/06/15 11:40:35;;;;;;;13.10;9.50;;;27.80;51.30;;;;;;5106281;28;20443;-58
2021/06/15 11:43:08;;;;;;;9.83;9.23;;;27.60;52.40;;;;;;5099930;28;20431;-58
2021/06/15 11:45:39;;;;;;;10.00;9.30;;;27.40;52.70;;;;;;5112906;28;20437;-57
2021/06/15 11:48:24;;;;;;;9.50;8.80;;;27.40;52.40;;;;;;5111566;28;20447;-58
2021/06/15 11:50:55;;;;;;;9.23;8.60;;;27.70;52.70;;;;;;5112310;28;20448;-58
2021/06/15 11:53:24;;;;;;;10.53;9.80;;;27.80;51.50;;;;;;5118515;28;20469;-57
2021/06/15 11:55:57;;;;;;;10.77;9.97;;;27.80;51.20;;;;;;5118427;28;20444;-59
2021/06/15 11:58:32;;;;;;;9.50;9.00;;;27.40;51.40;;;;;;5110441;28;20470;-59
2021/06/15 12:01:10;;;;;;;10.03;9.23;;;28.00;51.50;;;;;;5111996;28;20613;-59
2021/06/15 12:03:45;;;;;;;9.37;8.77;;;28.10;51.80;;;;;;5117289;28;20438;-58
2021/06/15 12:06:15;;;;;;;9.23;8.33;;;27.70;52.00;;;;;;5104764;28;20577;-57
2021/06/15 12:08:44;;;;;;;8.80;8.20;;;27.70;52.70;;;;;;5106172;28;20442;-56
2021/06/15 12:11:20;;;;;;;9.90;9.00;;;27.80;52.10;;;;;;5105541;28;20483;-57
2021/06/15 12:13:59;;;;;;;9.70;8.90;;;28.10;51.50;;;;;;5104812;28;20602;-58
2021/06/15 12:16:38;;;;;;;9.27;8.47;;;27.70;51.70;;;;;;5116359;28;20460;-57
2021/06/15 12:19:11;;;;;;;10.53;9.43;;;27.70;51.70;;;;;;5117307;28;20442;-56
2021/06/15 12:21:39;;;;;;;9.40;8.60;;;27.80;51.50;;;;;;5102361;27;20478;-57
2021/06/15 12:24:07;;;;;;;9.60;8.90;;;28.10;51.30;;;;;;5106173;28;20441;-58
2021/06/15 12:26:40;;;;;;;9.27;8.57;;;28.10;51.10;;;;;;5103397;28;20443;-58
2021/06/15 12:29:12;;;;;;;9.80;9.10;;;28.20;51.70;;;;;;5098575;28;20443;-58
2021/06/15 12:31:42;;;;;;;10.27;9.67;;;28.30;51.60;;;;;;5111119;28;20853;-58
2021/06/15 12:34:12;;;;;;;9.47;8.87;;;28.40;50.60;;;;;;5103979;28;20442;-58
2021/06/15 12:36:42;;;;;;;9.50;8.80;;;28.50;49.70;;;;;;5116656;28;20487;-58
2021/06/15 12:39:12;;;;;;;9.60;9.00;;;29.00;50.00;;;;;;5116394;28;20506;-58
2021/06/15 12:41:43;;;;;;;11.10;9.53;;;29.30;49.00;;;;;;5117133;28;20446;-58
2021/06/15 12:44:12;;;;;;;9.20;8.60;;;29.50;48.70;;;;;;5111847;28;20464;-57
2021/06/15 12:46:41;;;;;;;9.23;8.70;;;29.60;49.30;;;;;;5108253;28;20755;-56
2021/06/15 12:49:18;;;;;;;10.13;9.37;;;29.80;48.90;;;;;;5100492;28;20464;-58
2021/06/15 12:51:51;;;;;;;8.90;8.30;;;30.20;49.40;;;;;;5115318;28;20505;-57
2021/06/15 12:54:29;;;;;;;10.80;9.90;;;30.30;48.20;;;;;;5098496;28;20443;-56
2021/06/15 12:57:05;;;;;;;9.87;8.97;;;30.30;48.20;;;;;;5114140;28;20437;-57
2021/06/15 12:59:45;;;;;;;9.70;8.90;;;30.00;49.00;;;;;;5112467;28;20514;-57
2021/06/15 13:02:19;;;;;;;9.43;8.73;;;30.00;48.60;;;;;;5106373;28;20848;-58
2021/06/15 13:04:49;;;;;;;8.50;7.90;;;30.30;48.90;;;;;;5105004;28;20437;-57
2021/06/15 13:07:17;;;;;;;9.13;8.63;;;30.00;48.50;;;;;;5111521;28;20445;-57